Time;durP1;ratioP1;P1;durP2;ratioP2;P2;SDS_P1;SDS_P2;PMS_P1;PMS_P2;Temp;Humidity;BMP_temperature;BMP_pressure;BME280_temperature;BME280_humidity;BME280_pressure;Samples;Min_cycle;Max_cycle;Signal;HPM_P1;HPM_P2
2023/08/29 00:00:43;;;;;;;2.63;2.30;;;15.40;99.90;;;;;;5072609;28;20237;-60
2023/08/29 00:03:11;;;;;;;1.90;1.75;;;15.50;99.90;;;;;;5073474;28;20275;-61
2023/08/29 00:05:39;;;;;;;2.40;2.20;;;15.50;99.90;;;;;;5084471;28;20239;-60
2023/08/29 00:08:07;;;;;;;3.33;2.17;;;15.50;99.90;;;;;;5084943;28;20247;-60
2023/08/29 00:10:35;;;;;;;3.60;2.47;;;15.50;99.90;;;;;;5078283;28;20197;-61
2023/08/29 00:13:03;;;;;;;6.07;2.33;;;15.50;99.90;;;;;;5081515;28;20216;-61
2023/08/29 00:15:32;;;;;;;3.63;2.08;;;15.50;99.90;;;;;;5080116;28;20205;-61
2023/08/29 00:18:02;;;;;;;9.30;1.83;;;15.50;99.90;;;;;;5077958;28;20246;-61
2023/08/29 00:20:30;;;;;;;3.60;1.95;;;15.40;99.90;;;;;;5087717;28;20197;-61
2023/08/29 00:22:58;;;;;;;6.22;2.35;;;15.40;99.90;;;;;;5057980;28;20236;-61
2023/08/29 00:25:26;;;;;;;2.45;1.83;;;15.30;99.90;;;;;;5083382;28;20564;-61
2023/08/29 00:27:54;;;;;;;7.80;2.30;;;15.30;99.90;;;;;;5082435;28;20641;-60
2023/08/29 00:30:22;;;;;;;7.22;2.42;;;15.30;99.90;;;;;;5076032;28;20292;-61
2023/08/29 00:32:49;;;;;;;5.88;2.22;;;15.30;99.90;;;;;;5087461;28;20759;-61
2023/08/29 00:35:18;;;;;;;3.78;2.35;;;15.20;99.90;;;;;;5076959;28;20196;-61
2023/08/29 00:37:46;;;;;;;3.70;2.15;;;15.20;99.90;;;;;;5080681;28;20292;-61
2023/08/29 00:40:14;;;;;;;3.17;2.13;;;15.20;99.90;;;;;;5085242;28;20251;-60
2023/08/29 00:42:42;;;;;;;7.40;2.70;;;15.10;99.90;;;;;;5074250;28;20236;-59
2023/08/29 00:45:10;;;;;;;3.38;2.53;;;15.10;99.90;;;;;;5085501;28;20296;-59
2023/08/29 00:47:38;;;;;;;4.07;2.03;;;15.10;99.90;;;;;;5079920;28;20639;-59
2023/08/29 00:50:08;;;;;;;5.80;2.15;;;15.10;99.90;;;;;;5087760;28;20581;-59
2023/08/29 00:52:37;;;;;;;5.72;2.30;;;15.10;99.90;;;;;;5078013;28;20672;-60
2023/08/29 00:55:06;;;;;;;2.78;2.42;;;15.10;99.90;;;;;;5090294;28;20287;-59
2023/08/29 00:57:33;;;;;;;7.75;2.42;;;15.10;99.90;;;;;;5083176;28;20288;-59
2023/08/29 01:00:03;;;;;;;4.00;2.38;;;15.00;99.90;;;;;;5082442;28;20225;-60
2023/08/29 01:02:31;;;;;;;3.40;2.22;;;15.00;99.90;;;;;;5090971;28;20297;-59
2023/08/29 01:04:59;;;;;;;2.10;1.92;;;15.10;99.90;;;;;;5062081;28;20222;-59
2023/08/29 01:07:27;;;;;;;5.95;2.60;;;15.10;99.90;;;;;;5087131;28;20228;-60
2023/08/29 01:09:56;;;;;;;10.63;2.58;;;15.10;99.90;;;;;;5086063;28;20750;-59
2023/08/29 01:12:24;;;;;;;11.30;3.00;;;15.10;99.90;;;;;;5078848;28;20232;-59
2023/08/29 01:14:55;;;;;;;5.88;2.17;;;15.10;99.90;;;;;;5090765;28;20256;-60
2023/08/29 01:17:25;;;;;;;7.75;2.25;;;15.10;99.90;;;;;;5081204;28;20218;-59
2023/08/29 01:19:53;;;;;;;5.97;2.45;;;15.10;99.90;;;;;;5083108;28;20350;-59
2023/08/29 01:22:28;;;;;;;4.32;1.92;;;15.10;99.90;;;;;;5089415;28;20287;-59
2023/08/29 01:25:01;;;;;;;5.55;2.20;;;15.10;99.90;;;;;;5077177;28;20227;-59
2023/08/29 01:27:30;;;;;;;7.57;2.40;;;15.00;99.90;;;;;;5086069;28;20739;-59
2023/08/29 01:29:58;;;;;;;4.25;2.53;;;15.10;99.90;;;;;;5086356;28;20254;-60
2023/08/29 01:32:26;;;;;;;5.68;2.08;;;15.10;99.90;;;;;;5078367;28;20283;-59
2023/08/29 01:34:55;;;;;;;3.25;2.67;;;15.10;99.90;;;;;;5090378;28;20540;-59
2023/08/29 01:37:22;;;;;;;3.55;2.40;;;15.10;99.90;;;;;;5080802;28;20664;-60
2023/08/29 01:39:50;;;;;;;3.35;2.42;;;15.10;99.90;;;;;;5083161;28;20257;-59
2023/08/29 01:42:18;;;;;;;4.95;2.30;;;15.10;99.90;;;;;;5088818;28;20342;-58
2023/08/29 01:44:48;;;;;;;3.47;2.13;;;15.10;99.90;;;;;;5076397;28;20674;-59
2023/08/29 01:47:15;;;;;;;6.32;2.10;;;15.10;99.90;;;;;;5087897;28;20204;-59
2023/08/29 01:49:43;;;;;;;6.70;2.55;;;15.10;99.90;;;;;;5073801;28;20247;-59
2023/08/29 01:52:11;;;;;;;8.15;2.60;;;15.10;99.90;;;;;;5087376;28;20236;-59
2023/08/29 01:54:39;;;;;;;6.30;2.50;;;15.10;99.90;;;;;;5076588;28;20248;-59
2023/08/29 01:57:09;;;;;;;5.13;2.55;;;15.10;99.90;;;;;;5088926;28;20627;-60
2023/08/29 01:59:37;;;;;;;2.80;2.45;;;15.10;99.90;;;;;;5082285;28;20232;-59
2023/08/29 02:02:06;;;;;;;3.38;2.40;;;15.20;99.90;;;;;;5080687;28;20201;-60
2023/08/29 02:04:34;;;;;;;3.05;2.40;;;15.10;99.90;;;;;;5090558;28;20248;-60
2023/08/29 02:07:02;;;;;;;3.28;1.90;;;15.20;99.90;;;;;;5077258;28;20204;-60
2023/08/29 02:09:31;;;;;;;3.70;2.03;;;15.20;99.90;;;;;;5085751;28;20250;-60
2023/08/29 02:11:59;;;;;;;5.15;2.08;;;15.20;99.90;;;;;;5085543;28;20231;-60
2023/08/29 02:14:27;;;;;;;2.83;2.40;;;15.20;99.90;;;;;;5077647;28;20260;-60
2023/08/29 02:16:55;;;;;;;1.98;1.88;;;15.20;99.90;;;;;;5089629;28;20243;-60
2023/08/29 02:19:26;;;;;;;2.85;2.22;;;15.20;99.90;;;;;;5080230;28;20216;-60
2023/08/29 02:21:54;;;;;;;4.10;2.17;;;15.20;99.90;;;;;;5081825;28;20729;-60
2023/08/29 02:24:21;;;;;;;1.92;1.83;;;15.10;99.90;;;;;;5088261;28;20228;-60
2023/08/29 02:26:49;;;;;;;6.97;2.17;;;15.10;99.90;;;;;;5076316;28;20621;-60
2023/08/29 02:29:17;;;;;;;5.38;2.03;;;15.10;99.90;;;;;;5087154;28;20560;-59
2023/08/29 02:31:45;;;;;;;2.33;2.13;;;15.10;99.90;;;;;;5083281;28;20232;-61
2023/08/29 02:34:13;;;;;;;4.90;2.20;;;15.10;99.90;;;;;;5078539;28;20712;-60
2023/08/29 02:36:43;;;;;;;5.03;2.15;;;15.10;99.90;;;;;;5089599;28;20284;-59
2023/08/29 02:39:11;;;;;;;3.90;2.35;;;15.10;99.90;;;;;;5078053;28;20831;-59
2023/08/29 02:41:39;;;;;;;4.55;1.73;;;15.10;99.90;;;;;;5083839;28;20201;-60
2023/08/29 02:44:07;;;;;;;3.40;1.83;;;15.10;99.90;;;;;;5085839;28;20573;-59
2023/08/29 02:46:35;;;;;;;5.07;2.13;;;15.10;99.90;;;;;;5075901;28;20205;-59
2023/08/29 02:49:03;;;;;;;2.03;1.92;;;15.10;99.90;;;;;;5084812;28;20200;-59
2023/08/29 02:51:31;;;;;;;6.32;2.40;;;15.10;99.90;;;;;;5084889;28;20206;-58
2023/08/29 02:54:00;;;;;;;5.10;2.53;;;15.10;99.90;;;;;;5084557;28;20311;-59
2023/08/29 02:56:28;;;;;;;9.18;2.20;;;15.10;99.90;;;;;;5076301;28;20262;-59
2023/08/29 02:58:56;;;;;;;5.15;2.40;;;15.10;99.90;;;;;;5088967;28;20229;-59
2023/08/29 03:01:24;;;;;;;2.60;2.28;;;15.10;99.90;;;;;;5079472;28;20309;-59
2023/08/29 03:03:51;;;;;;;2.40;2.30;;;15.10;99.90;;;;;;5081270;28;20260;-60
2023/08/29 03:06:19;;;;;;;3.50;2.28;;;15.10;99.90;;;;;;5087179;28;20564;-59
2023/08/29 03:08:47;;;;;;;2.33;2.17;;;15.10;99.90;;;;;;5075686;28;20286;-59
2023/08/29 03:11:16;;;;;;;2.60;2.35;;;15.10;99.90;;;;;;5085818;28;20197;-59
2023/08/29 03:13:44;;;;;;;2.53;2.33;;;15.10;99.90;;;;;;5081805;28;20224;-60
2023/08/29 03:16:11;;;;;;;4.38;2.75;;;15.00;99.90;;;;;;5078448;28;20286;-59
2023/08/29 03:18:39;;;;;;;4.45;2.13;;;15.00;99.90;;;;;;5076861;28;20205;-60
2023/08/29 03:21:07;;;;;;;2.90;2.00;;;15.00;99.90;;;;;;5076328;28;20308;-59
2023/08/29 03:23:35;;;;;;;2.55;2.38;;;15.00;99.90;;;;;;5063997;28;20664;-60
2023/08/29 03:26:05;;;;;;;3.17;2.53;;;15.00;99.90;;;;;;5084455;28;20266;-59
2023/08/29 03:28:38;;;;;;;6.40;2.50;;;15.00;99.90;;;;;;5075452;28;20201;-60
2023/08/29 03:31:10;;;;;;;4.82;2.50;;;15.00;99.90;;;;;;5072372;28;20200;-60
2023/08/29 03:33:38;;;;;;;5.90;2.70;;;15.00;99.90;;;;;;5070148;28;20216;-58
2023/08/29 03:36:07;;;;;;;2.83;2.30;;;15.00;99.90;;;;;;5078561;28;20212;-60
2023/08/29 03:38:36;;;;;;;3.22;2.42;;;14.90;99.90;;;;;;5088276;28;20205;-60
2023/08/29 03:41:04;;;;;;;2.55;2.35;;;15.00;99.90;;;;;;5076251;28;20720;-59
2023/08/29 03:43:33;;;;;;;2.83;2.70;;;15.00;99.90;;;;;;5083466;28;20221;-60
2023/08/29 03:46:03;;;;;;;2.88;2.67;;;15.00;99.90;;;;;;5083939;28;20197;-60
2023/08/29 03:48:31;;;;;;;2.70;2.40;;;15.00;99.90;;;;;;5075073;28;20197;-59
2023/08/29 03:51:01;;;;;;;2.78;2.58;;;15.00;99.90;;;;;;5059273;28;20192;-60
2023/08/29 03:53:29;;;;;;;4.15;2.50;;;15.00;99.90;;;;;;5083484;28;20253;-60
2023/08/29 03:56:00;;;;;;;2.80;2.60;;;15.00;99.90;;;;;;5083432;28;20235;-60
2023/08/29 03:58:28;;;;;;;5.43;3.00;;;15.00;99.90;;;;;;5075611;28;20197;-60
2023/08/29 04:00:56;;;;;;;2.72;2.28;;;15.00;99.90;;;;;;5088182;28;20245;-60
2023/08/29 04:03:25;;;;;;;3.80;2.42;;;15.00;99.90;;;;;;5078555;28;20220;-60
2023/08/29 04:05:54;;;;;;;3.95;2.42;;;15.00;99.90;;;;;;5079665;28;20204;-60
2023/08/29 04:08:21;;;;;;;5.93;3.10;;;15.00;99.90;;;;;;5086663;28;20317;-60
2023/08/29 04:10:49;;;;;;;3.90;2.42;;;15.00;99.90;;;;;;5074984;28;20280;-60
2023/08/29 04:13:17;;;;;;;2.72;2.40;;;15.00;99.90;;;;;;5085104;28;20696;-60
2023/08/29 04:15:45;;;;;;;4.75;2.80;;;15.00;99.90;;;;;;5081303;28;20226;-60
2023/08/29 04:18:14;;;;;;;4.32;2.75;;;15.00;99.90;;;;;;5077230;28;20289;-60
2023/08/29 04:20:44;;;;;;;5.70;1.90;;;15.00;99.90;;;;;;5087952;28;20319;-60
2023/08/29 04:23:12;;;;;;;4.93;2.70;;;15.00;99.90;;;;;;5076350;28;20224;-60
2023/08/29 04:25:40;;;;;;;8.93;2.80;;;15.00;99.90;;;;;;5080824;22;20644;-57
2023/08/29 04:28:08;;;;;;;4.80;3.20;;;15.00;99.90;;;;;;5057941;28;20236;-53
2023/08/29 04:30:36;;;;;;;2.90;2.30;;;14.90;99.90;;;;;;5054622;28;20208;-54
2023/08/29 04:33:05;;;;;;;4.28;2.45;;;14.90;99.90;;;;;;5066417;28;20291;-53
2023/08/29 04:35:34;;;;;;;6.45;2.60;;;14.90;99.90;;;;;;5042137;28;20595;-55
2023/08/29 04:38:03;;;;;;;4.95;3.25;;;14.90;99.90;;;;;;5037822;28;20252;-53
2023/08/29 04:40:32;;;;;;;8.15;2.80;;;14.90;99.90;;;;;;5020271;28;20222;-55
2023/08/29 04:43:00;;;;;;;5.13;3.00;;;14.90;99.90;;;;;;5018830;28;20194;-55
2023/08/29 04:45:28;;;;;;;3.03;2.83;;;14.90;99.90;;;;;;5042802;28;20218;-54
2023/08/29 04:47:56;;;;;;;3.30;3.00;;;14.90;99.90;;;;;;5039791;28;20360;-54
2023/08/29 04:50:25;;;;;;;4.22;3.58;;;14.90;99.90;;;;;;5046387;28;20202;-53
2023/08/29 04:52:55;;;;;;;8.27;3.70;;;14.90;99.90;;;;;;5034318;28;20259;-57
2023/08/29 04:55:25;;;;;;;11.23;3.58;;;14.90;99.90;;;;;;5043774;28;20214;-53
2023/08/29 04:57:55;;;;;;;7.07;3.40;;;14.90;99.90;;;;;;5041800;28;20206;-58
2023/08/29 05:00:24;;;;;;;4.00;3.15;;;14.90;99.90;;;;;;5035630;28;20256;-55
2023/08/29 05:02:52;;;;;;;6.72;2.70;;;15.00;99.90;;;;;;5047236;28;20667;-57
2023/08/29 05:05:20;;;;;;;7.22;3.05;;;15.00;99.90;;;;;;5030281;28;20287;-55
2023/08/29 05:07:47;;;;;;;7.10;3.38;;;15.00;99.90;;;;;;5036271;28;20207;-58
2023/08/29 05:10:15;;;;;;;4.38;3.72;;;15.00;99.90;;;;;;5044874;28;20293;-55
2023/08/29 05:12:45;;;;;;;5.47;3.88;;;15.00;99.90;;;;;;5033735;28;20286;-53
2023/08/29 05:15:14;;;;;;;8.20;4.38;;;15.10;99.90;;;;;;5033737;28;20226;-56
2023/08/29 05:17:42;;;;;;;5.40;4.35;;;15.10;99.90;;;;;;5030021;28;20206;-55
2023/08/29 05:20:11;;;;;;;10.55;4.45;;;15.10;99.90;;;;;;5037223;28;20211;-57
2023/08/29 05:22:39;;;;;;;5.53;4.47;;;15.20;99.90;;;;;;5046879;28;20222;-54
2023/08/29 05:25:08;;;;;;;5.32;4.30;;;15.20;99.90;;;;;;5034896;28;20773;-54
2023/08/29 05:27:35;;;;;;;7.80;4.60;;;15.20;99.90;;;;;;5040931;28;20294;-53
2023/08/29 05:30:07;;;;;;;7.20;5.00;;;15.30;99.90;;;;;;5036236;28;20234;-55
2023/08/29 05:32:37;;;;;;;5.22;4.40;;;15.30;99.90;;;;;;5021596;28;20238;-56
2023/08/29 05:35:05;;;;;;;5.38;4.20;;;15.40;99.90;;;;;;5048437;28;20226;-54
2023/08/29 05:37:34;;;;;;;6.10;4.10;;;15.40;99.90;;;;;;5042617;28;20281;-55
2023/08/29 05:40:06;;;;;;;4.93;4.25;;;15.50;99.90;;;;;;5042079;28;20290;-55
2023/08/29 05:42:34;;;;;;;7.38;4.05;;;15.60;99.90;;;;;;5033526;28;20230;-58
2023/08/29 05:45:05;;;;;;;6.90;4.28;;;15.50;99.90;;;;;;5042977;28;20236;-54
2023/08/29 05:47:33;;;;;;;8.95;3.83;;;15.60;99.90;;;;;;5035125;28;20202;-54
2023/08/29 05:50:00;;;;;;;9.63;4.05;;;15.60;99.90;;;;;;5034592;28;20202;-55
2023/08/29 05:52:29;;;;;;;10.15;4.65;;;15.60;99.90;;;;;;5034470;28;20206;-54
2023/08/29 05:54:57;;;;;;;4.07;3.78;;;15.70;99.90;;;;;;5050759;28;20226;-56
2023/08/29 05:57:26;;;;;;;5.05;4.65;;;15.70;99.90;;;;;;5039684;28;20260;-58
2023/08/29 05:59:54;;;;;;;5.20;4.10;;;15.70;99.90;;;;;;5042605;28;20210;-56
2023/08/29 06:02:23;;;;;;;6.78;3.85;;;15.80;99.90;;;;;;5048509;28;20335;-57
2023/08/29 06:04:51;;;;;;;11.23;4.35;;;15.80;99.90;;;;;;5036832;28;21082;-57
2023/08/29 06:07:19;;;;;;;10.07;3.80;;;15.90;99.90;;;;;;5046860;28;20198;-57
2023/08/29 06:09:47;;;;;;;10.20;3.95;;;15.90;99.90;;;;;;5043910;28;20256;-59
2023/08/29 06:12:15;;;;;;;5.25;4.15;;;15.90;99.90;;;;;;5038801;28;20203;-55
2023/08/29 06:14:43;;;;;;;4.97;3.88;;;16.00;99.90;;;;;;5039284;28;20339;-59
2023/08/29 06:17:11;;;;;;;5.68;3.85;;;16.00;99.90;;;;;;5035529;28;20289;-57
2023/08/29 06:19:40;;;;;;;7.80;3.95;;;16.10;99.90;;;;;;5021476;28;20662;-55
2023/08/29 06:22:08;;;;;;;4.00;3.65;;;16.10;99.90;;;;;;5028434;28;20309;-56
2023/08/29 06:24:38;;;;;;;6.95;3.53;;;16.20;99.90;;;;;;5031027;28;20700;-57
2023/08/29 06:27:06;;;;;;;9.25;3.70;;;16.20;99.90;;;;;;5035755;28;20341;-56
2023/08/29 06:29:33;;;;;;;8.40;4.13;;;16.30;99.90;;;;;;5024109;28;20207;-56
2023/08/29 06:32:01;;;;;;;7.38;3.90;;;16.30;99.90;;;;;;5032039;28;20199;-56
2023/08/29 06:34:29;;;;;;;5.43;3.50;;;16.40;99.90;;;;;;5032098;28;20717;-56
2023/08/29 06:36:58;;;;;;;3.63;3.28;;;16.40;99.90;;;;;;5036113;28;20221;-55
2023/08/29 06:39:26;;;;;;;4.03;3.67;;;16.50;99.90;;;;;;5032727;28;20237;-58
2023/08/29 06:41:56;;;;;;;3.92;3.50;;;16.50;99.90;;;;;;5027128;28;20345;-58
2023/08/29 06:44:23;;;;;;;3.90;3.70;;;16.50;99.90;;;;;;5047845;28;20258;-56
2023/08/29 06:46:51;;;;;;;7.63;3.22;;;16.60;99.90;;;;;;5036958;28;20210;-57
2023/08/29 06:49:19;;;;;;;6.68;3.55;;;16.60;99.90;;;;;;5037869;28;20687;-57
2023/08/29 06:51:47;;;;;;;4.93;3.38;;;16.70;99.90;;;;;;5021155;28;20553;-55
2023/08/29 06:54:16;;;;;;;3.83;3.05;;;16.70;99.90;;;;;;5023655;28;20577;-55
2023/08/29 06:56:44;;;;;;;3.17;2.55;;;16.70;99.90;;;;;;5048437;28;20236;-56
2023/08/29 06:59:12;;;;;;;4.18;2.88;;;16.70;99.90;;;;;;5038122;28;20241;-55
2023/08/29 07:01:40;;;;;;;3.28;2.88;;;16.80;99.90;;;;;;5043265;28;20222;-55
2023/08/29 07:04:09;;;;;;;6.03;2.95;;;16.80;99.90;;;;;;5045572;28;20253;-58
2023/08/29 07:06:37;;;;;;;3.55;2.60;;;16.80;99.90;;;;;;5035682;28;20265;-57
2023/08/29 07:09:05;;;;;;;4.30;3.15;;;16.90;99.90;;;;;;5047580;28;20261;-55
2023/08/29 07:11:34;;;;;;;3.25;2.92;;;16.90;99.90;;;;;;5040937;28;20260;-56
2023/08/29 07:14:02;;;;;;;3.65;2.55;;;16.90;99.90;;;;;;5039406;28;20698;-58
2023/08/29 07:16:31;;;;;;;7.78;2.85;;;17.00;99.90;;;;;;5029163;28;20253;-56
2023/08/29 07:18:59;;;;;;;4.72;2.45;;;17.00;99.90;;;;;;5031571;28;20303;-55
2023/08/29 07:21:28;;;;;;;2.55;2.15;;;17.10;99.90;;;;;;5031187;28;20295;-55
2023/08/29 07:23:56;;;;;;;3.38;2.63;;;17.10;99.90;;;;;;5036710;28;20633;-56
2023/08/29 07:26:24;;;;;;;3.53;3.00;;;17.20;99.90;;;;;;5026927;28;20200;-57
2023/08/29 07:28:54;;;;;;;4.90;2.78;;;17.20;99.90;;;;;;5026162;28;20230;-58
2023/08/29 07:31:22;;;;;;;3.83;2.47;;;17.20;99.90;;;;;;5044981;28;20202;-55
2023/08/29 07:33:50;;;;;;;5.35;2.90;;;17.30;99.90;;;;;;5042467;28;20201;-56
2023/08/29 07:36:18;;;;;;;3.45;2.60;;;17.30;99.90;;;;;;5036949;28;20206;-55
2023/08/29 07:38:46;;;;;;;3.95;2.70;;;17.30;99.90;;;;;;5048391;28;20213;-56
2023/08/29 07:41:14;;;;;;;3.85;2.50;;;17.40;99.90;;;;;;5037745;28;20210;-56
2023/08/29 07:43:42;;;;;;;6.05;2.67;;;17.40;99.90;;;;;;5041844;28;20354;-57
2023/08/29 07:46:12;;;;;;;3.50;2.30;;;17.40;99.90;;;;;;5044967;28;20660;-58
2023/08/29 07:48:40;;;;;;;7.15;2.67;;;17.50;99.90;;;;;;5033628;28;20689;-55
2023/08/29 07:51:07;;;;;;;3.60;2.33;;;17.50;99.90;;;;;;5036837;28;20259;-55
2023/08/29 07:53:35;;;;;;;2.97;2.67;;;17.60;99.90;;;;;;5042545;28;20198;-55
2023/08/29 07:56:04;;;;;;;3.33;2.85;;;17.70;99.90;;;;;;5043816;28;20224;-55
2023/08/29 07:58:32;;;;;;;4.15;2.60;;;17.80;99.90;;;;;;5034695;28;20237;-56
2023/08/29 08:01:01;;;;;;;4.15;2.53;;;17.80;99.90;;;;;;5019664;28;20269;-55
2023/08/29 08:03:31;;;;;;;3.00;2.70;;;17.80;99.90;;;;;;5043157;28;20317;-55
2023/08/29 08:05:59;;;;;;;2.70;2.03;;;17.90;99.90;;;;;;5043121;28;20201;-55
2023/08/29 08:08:27;;;;;;;6.82;2.10;;;17.90;99.90;;;;;;5035198;28;20202;-55
2023/08/29 08:10:55;;;;;;;2.17;1.98;;;18.00;99.90;;;;;;5047329;28;20291;-55
2023/08/29 08:13:23;;;;;;;4.20;2.60;;;18.00;99.90;;;;;;5038111;28;20272;-55
2023/08/29 08:15:51;;;;;;;3.72;2.20;;;18.10;99.90;;;;;;5039966;28;20300;-56
2023/08/29 08:18:19;;;;;;;3.60;2.17;;;18.10;99.90;;;;;;5045992;28;20256;-55
2023/08/29 08:20:48;;;;;;;3.63;2.30;;;18.20;99.90;;;;;;5034677;28;20216;-55
2023/08/29 08:23:16;;;;;;;2.83;2.45;;;18.20;99.90;;;;;;5044883;28;20539;-55
2023/08/29 08:25:44;;;;;;;2.90;2.60;;;18.30;99.90;;;;;;5040502;28;20776;-56
2023/08/29 08:28:13;;;;;;;3.92;2.15;;;18.30;99.90;;;;;;5037016;28;20209;-56
2023/08/29 08:30:41;;;;;;;2.45;2.03;;;18.40;99.90;;;;;;5047700;28;20201;-55
2023/08/29 08:33:09;;;;;;;3.92;2.22;;;18.40;99.90;;;;;;5036125;28;20275;-56
2023/08/29 08:35:37;;;;;;;3.80;2.30;;;18.50;99.90;;;;;;5041918;28;20257;-56
2023/08/29 08:38:20;;;;;;;2.55;2.08;;;18.60;99.90;;;;;;5045650;28;20201;-56
2023/08/29 08:40:47;;;;;;;5.53;2.03;;;18.60;99.90;;;;;;5034367;28;20283;-55
2023/08/29 08:43:15;;;;;;;3.05;2.08;;;18.60;99.90;;;;;;5044763;28;20312;-55
2023/08/29 08:45:43;;;;;;;5.35;2.50;;;18.70;99.90;;;;;;5038560;28;20301;-56
2023/08/29 08:48:11;;;;;;;4.30;2.10;;;18.70;99.90;;;;;;5027989;28;20214;-55
2023/08/29 08:50:39;;;;;;;1.80;1.70;;;18.80;99.90;;;;;;5031784;28;20684;-55
2023/08/29 08:53:07;;;;;;;2.30;1.85;;;18.90;99.90;;;;;;5038401;28;20259;-56
2023/08/29 08:55:36;;;;;;;2.17;1.98;;;18.90;99.90;;;;;;5029298;28;20257;-55
2023/08/29 08:58:05;;;;;;;2.28;1.77;;;19.00;99.90;;;;;;5033533;28;20206;-58
2023/08/29 09:00:33;;;;;;;3.17;2.05;;;19.00;99.90;;;;;;5029600;28;20582;-56
2023/08/29 09:03:01;;;;;;;3.35;1.73;;;19.00;99.90;;;;;;5019194;28;20280;-56
2023/08/29 09:05:29;;;;;;;3.85;1.90;;;19.10;99.90;;;;;;5038192;28;20218;-57
2023/08/29 09:07:57;;;;;;;1.90;1.80;;;19.10;99.90;;;;;;5037885;28;20241;-57
2023/08/29 09:10:25;;;;;;;1.90;1.80;;;19.20;99.90;;;;;;5049217;28;20236;-56
2023/08/29 09:12:55;;;;;;;1.50;1.35;;;19.20;99.90;;;;;;5037933;28;20614;-56
2023/08/29 09:15:23;;;;;;;2.78;1.63;;;19.30;99.90;;;;;;5047209;28;20287;-58
2023/08/29 09:17:52;;;;;;;7.18;1.85;;;19.30;99.90;;;;;;5045273;28;20205;-56
2023/08/29 09:20:21;;;;;;;1.98;1.45;;;19.40;99.90;;;;;;5039304;28;20210;-57
2023/08/29 09:22:49;;;;;;;4.05;1.25;;;19.40;99.90;;;;;;5050667;28;20237;-55
2023/08/29 09:25:17;;;;;;;1.65;1.55;;;19.50;99.90;;;;;;5039999;28;20595;-57
2023/08/29 09:27:46;;;;;;;1.98;1.38;;;19.60;99.90;;;;;;5044315;28;20645;-56
2023/08/29 09:30:16;;;;;;;1.77;1.52;;;19.70;99.90;;;;;;5034119;28;20299;-57
2023/08/29 09:32:45;;;;;;;3.55;1.15;;;19.70;99.90;;;;;;5035371;28;20238;-58
2023/08/29 09:35:14;;;;;;;1.38;1.10;;;19.80;99.90;;;;;;5042745;28;20738;-56
2023/08/29 09:37:45;;;;;;;3.22;1.55;;;19.80;99.90;;;;;;5044664;28;20197;-56
2023/08/29 09:40:15;;;;;;;1.40;0.98;;;20.00;99.90;;;;;;5048052;28;20256;-57
2023/08/29 09:43:04;;;;;;;1.88;1.48;;;20.00;99.90;;;;;;5022910;28;20212;-56
2023/08/29 09:45:37;;;;;;;1.35;1.25;;;20.10;99.90;;;;;;5044884;28;20232;-55
2023/08/29 09:48:07;;;;;;;1.58;1.27;;;20.20;99.90;;;;;;5030725;28;20205;-55
2023/08/29 09:50:36;;;;;;;2.25;1.40;;;20.20;99.90;;;;;;5034330;28;20293;-56
2023/08/29 09:53:05;;;;;;;2.40;1.30;;;20.30;99.90;;;;;;5035240;28;20229;-56
2023/08/29 09:55:37;;;;;;;1.75;1.63;;;20.40;99.90;;;;;;5037770;28;20217;-60
2023/08/29 09:58:05;;;;;;;1.77;1.33;;;20.40;99.90;;;;;;5035524;28;20628;-60
2023/08/29 10:00:35;;;;;;;3.38;1.50;;;20.40;99.90;;;;;;5031136;28;20573;-59
2023/08/29 10:03:06;;;;;;;2.47;1.30;;;20.50;99.90;;;;;;5033288;28;20205;-60
2023/08/29 10:05:36;;;;;;;2.08;1.52;;;20.50;99.90;;;;;;5032933;28;20691;-59
2023/08/29 10:08:06;;;;;;;2.95;1.38;;;20.50;99.90;;;;;;5031993;28;20285;-59
2023/08/29 10:10:35;;;;;;;1.45;1.40;;;20.60;99.90;;;;;;5030181;28;20289;-60
2023/08/29 10:13:03;;;;;;;5.22;1.58;;;20.60;99.90;;;;;;5038561;28;20251;-60
2023/08/29 10:15:32;;;;;;;1.60;1.50;;;20.70;99.90;;;;;;5031878;28;20257;-60
2023/08/29 10:18:05;;;;;;;4.70;1.52;;;20.70;99.90;;;;;;5028448;28;20209;-59
2023/08/29 10:20:33;;;;;;;3.63;1.63;;;20.70;99.90;;;;;;5030888;28;20737;-60
2023/08/29 10:23:02;;;;;;;3.05;1.52;;;20.70;99.90;;;;;;5035986;28;20267;-60
2023/08/29 10:25:30;;;;;;;1.40;1.30;;;20.60;99.90;;;;;;5039134;22;20316;-78
2023/08/29 10:27:58;;;;;;;1.58;1.10;;;20.50;99.90;;;;;;5027556;28;20658;-78
2023/08/29 10:30:26;;;;;;;5.65;1.45;;;20.50;99.90;;;;;;5034605;28;20206;-78
2023/08/29 10:32:54;;;;;;;2.42;1.48;;;20.40;99.90;;;;;;5025274;28;20210;-78
2023/08/29 10:35:24;;;;;;;2.55;1.10;;;20.40;99.90;;;;;;5026596;28;20203;-78
2023/08/29 10:37:52;;;;;;;3.80;1.00;;;20.30;99.90;;;;;;5024121;28;20350;-78
2023/08/29 10:40:21;;;;;;;2.38;1.05;;;20.30;99.90;;;;;;5028459;28;20658;-78
2023/08/29 10:42:53;;;;;;;1.30;1.20;;;20.30;99.90;;;;;;5027302;28;20733;-78
2023/08/29 10:45:22;;;;;;;1.90;1.30;;;20.20;99.90;;;;;;5015819;28;20223;-78
2023/08/29 10:47:50;;;;;;;4.22;1.40;;;20.30;99.90;;;;;;5024313;28;20222;-78
2023/08/29 10:50:18;;;;;;;3.13;1.00;;;20.30;99.90;;;;;;5028273;28;20241;-78
2023/08/29 10:52:50;;;;;;;3.25;1.38;;;20.40;99.90;;;;;;5024172;28;20305;-78
2023/08/29 10:55:22;;;;;;;2.75;1.40;;;20.50;99.90;;;;;;5027613;28;20254;-78
2023/08/29 10:57:51;;;;;;;1.23;1.20;;;20.60;99.90;;;;;;5029941;28;20218;-78
2023/08/29 11:00:33;;;;;;;1.60;1.50;;;20.60;99.90;;;;;;5028462;28;20206;-78
2023/08/29 11:03:02;;;;;;;4.18;1.50;;;20.60;99.90;;;;;;5028452;28;20230;-78
2023/08/29 11:05:30;;;;;;;2.80;1.20;;;20.60;99.90;;;;;;5028761;28;20221;-78
2023/08/29 11:08:21;;;;;;;2.30;1.20;;;20.50;99.90;;;;;;5027495;28;20313;-78
2023/08/29 11:11:13;;;;;;;2.97;1.23;;;20.50;99.90;;;;;;5023788;28;20683;-78
2023/08/29 11:13:57;;;;;;;1.88;1.25;;;20.40;99.90;;;;;;5029207;28;20289;-78
2023/08/29 11:16:25;;;;;;;2.72;1.20;;;20.40;99.90;;;;;;5026018;28;20735;-78
2023/08/29 11:19:04;;;;;;;4.15;1.50;;;20.30;99.90;;;;;;5031793;28;20213;-78
2023/08/29 11:21:32;;;;;;;1.50;1.15;;;20.10;99.90;;;;;;5038344;28;20359;-78
2023/08/29 11:24:01;;;;;;;4.07;1.45;;;19.80;99.90;;;;;;5032323;28;20237;-78
2023/08/29 11:26:45;;;;;;;2.13;1.48;;;19.60;99.90;;;;;;5028706;28;20605;-78
2023/08/29 11:29:13;;;;;;;1.52;1.20;;;19.40;99.90;;;;;;5031013;28;20286;-78
2023/08/29 11:31:42;;;;;;;2.63;1.25;;;19.20;99.90;;;;;;5028841;28;20265;-78
2023/08/29 11:34:18;;;;;;;3.00;1.30;;;19.10;99.90;;;;;;5022327;28;20582;-79
2023/08/29 11:36:48;;;;;;;2.05;1.10;;;19.00;99.90;;;;;;5028780;28;20229;-78
2023/08/29 11:39:19;;;;;;;5.53;1.17;;;18.90;99.90;;;;;;5029618;28;20217;-79
2023/08/29 11:41:47;;;;;;;1.13;1.13;;;18.70;99.90;;;;;;5029087;28;20210;-79
2023/08/29 11:44:35;;;;;;;5.65;1.00;;;18.60;99.90;;;;;;5017640;28;20605;-79
2023/08/29 11:47:23;;;;;;;0.73;0.73;;;18.40;99.90;;;;;;5027761;28;20230;-78
2023/08/29 11:49:52;;;;;;;4.20;1.00;;;18.20;99.90;;;;;;5023996;28;20206;-79
2023/08/29 11:52:20;;;;;;;2.08;0.65;;;18.10;99.90;;;;;;5028827;28;20209;-78
2023/08/29 11:54:50;;;;;;;2.15;0.93;;;18.00;99.90;;;;;;5030169;28;20782;-78
2023/08/29 11:57:20;;;;;;;1.33;0.70;;;18.00;99.90;;;;;;5031812;28;20664;-78
2023/08/29 11:59:48;;;;;;;0.98;0.70;;;18.00;99.90;;;;;;5030732;28;20713;-79
2023/08/29 12:02:17;;;;;;;1.63;0.90;;;18.00;99.90;;;;;;5026971;28;20287;-79
2023/08/29 12:04:49;;;;;;;1.27;0.77;;;18.00;99.90;;;;;;5028605;28;20280;-79
2023/08/29 12:07:18;;;;;;;0.75;0.60;;;17.90;99.90;;;;;;5025798;28;20222;-78
2023/08/29 12:09:47;;;;;;;0.50;0.50;;;17.90;99.90;;;;;;5030916;28;20286;-78
2023/08/29 12:12:32;;;;;;;0.65;0.60;;;17.80;99.90;;;;;;5024544;28;20209;-78
2023/08/29 12:15:00;;;;;;;0.80;0.60;;;17.70;99.90;;;;;;5016032;28;20702;-79
2023/08/29 12:17:38;;;;;;;1.00;0.70;;;17.60;99.90;;;;;;5024676;28;20770;-79
2023/08/29 12:20:27;;;;;;;0.73;0.60;;;17.60;99.90;;;;;;5029485;28;20240;-79
2023/08/29 12:22:56;;;;;;;0.98;0.60;;;17.60;99.90;;;;;;5029813;28;20553;-79
2023/08/29 12:25:24;;;;;;;2.67;0.90;;;17.70;99.90;;;;;;5022087;28;20704;-79
2023/08/29 12:27:54;;;;;;;1.38;1.13;;;17.70;99.90;;;;;;5027324;28;20227;-78
2023/08/29 12:30:22;;;;;;;1.83;0.70;;;17.70;99.90;;;;;;5027437;28;20289;-78
2023/08/29 12:32:50;;;;;;;2.03;0.60;;;17.70;99.90;;;;;;5027075;28;20364;-78
2023/08/29 12:35:19;;;;;;;3.03;0.75;;;17.70;99.90;;;;;;5017687;28;20210;-78
2023/08/29 12:37:47;;;;;;;1.65;0.90;;;17.70;99.90;;;;;;5023217;28;20234;-78
2023/08/29 12:40:15;;;;;;;0.90;0.90;;;17.70;99.90;;;;;;5027151;28;20202;-78
2023/08/29 12:42:43;;;;;;;1.65;0.90;;;17.70;99.90;;;;;;5022286;28;20581;-78
2023/08/29 12:45:13;;;;;;;1.85;1.08;;;17.80;99.90;;;;;;5029179;28;20219;-78
2023/08/29 12:47:41;;;;;;;5.38;1.00;;;17.80;99.90;;;;;;5025419;28;20312;-78
2023/08/29 12:50:09;;;;;;;1.20;0.90;;;17.80;99.90;;;;;;5022297;28;20680;-78
2023/08/29 12:52:40;;;;;;;1.15;1.02;;;17.90;99.90;;;;;;5032361;28;20210;-78
2023/08/29 12:55:11;;;;;;;1.25;0.88;;;17.90;99.90;;;;;;5021176;28;20229;-78